createdAt,value
2022-12-09T00:00:47.421Z,-0.85
2022-12-09T00:03:32.966Z,-0.86
2022-12-09T00:06:20.818Z,-0.92
2022-12-09T00:09:06.386Z,-0.93
2022-12-09T00:11:52.283Z,-0.94
2022-12-09T00:14:37.450Z,-0.97
2022-12-09T00:17:22.693Z,-1.01
2022-12-09T00:20:08.116Z,-1.02
2022-12-09T00:22:56.668Z,-1.08
2022-12-09T00:25:41.610Z,-1.12
2022-12-09T00:28:27.162Z,-1.18
2022-12-09T00:31:14.939Z,-1.19
2022-12-09T00:34:03.490Z,-1.23
2022-12-09T00:36:48.511Z,-1.26
2022-12-09T00:39:33.694Z,-1.26
2022-12-09T00:42:18.394Z,-1.28
2022-12-09T00:45:03.721Z,-1.27
2022-12-09T00:47:48.654Z,-1.30
2022-12-09T00:50:34.879Z,-1.34
2022-12-09T00:53:20.530Z,-1.32
2022-12-09T00:56:06.498Z,-1.34
2022-12-09T00:58:52.757Z,-1.35
2022-12-09T01:01:37.945Z,-1.31
2022-12-09T01:04:24.654Z,-1.30
2022-12-09T01:07:10.429Z,-1.34
2022-12-09T01:09:54.908Z,-1.32
2022-12-09T01:12:41.167Z,-1.34
2022-12-09T01:15:25.706Z,-1.36
2022-12-09T01:18:12.077Z,-1.35
2022-12-09T01:20:58.771Z,-1.35
2022-12-09T01:23:44.508Z,-1.39
2022-12-09T01:26:29.482Z,-1.38
2022-12-09T01:29:14.301Z,-1.27
2022-12-09T01:31:59.750Z,-1.23
2022-12-09T01:34:45.599Z,-1.23
2022-12-09T01:37:35.713Z,-1.18
2022-12-09T01:40:21.313Z,-1.24
2022-12-09T01:43:17.359Z,-1.25
2022-12-09T01:46:03.196Z,-1.30
2022-12-09T01:48:48.071Z,-1.32
2022-12-09T01:51:33.490Z,-1.39
2022-12-09T01:54:18.421Z,-1.49
2022-12-09T01:57:04.354Z,-1.52
2022-12-09T01:59:49.717Z,-1.62
2022-12-09T02:02:37.184Z,-1.65
2022-12-09T02:05:26.017Z,-1.72
2022-12-09T02:08:18.617Z,-1.71
2022-12-09T02:11:48.103Z,-1.71
2022-12-09T02:14:58.415Z,-1.73
2022-12-09T02:17:53.826Z,-1.76
2022-12-09T02:20:46.257Z,-1.79
2022-12-09T02:23:44.311Z,-1.77
2022-12-09T02:26:45.351Z,-1.78
2022-12-09T02:30:04.373Z,-1.83
2022-12-09T02:33:14.841Z,-1.89
2022-12-09T02:36:08.851Z,-1.99
2022-12-09T02:38:54.622Z,-1.97
2022-12-09T02:41:45.561Z,-2.02
2022-12-09T02:44:31.331Z,-2.03
2022-12-09T02:47:20.484Z,-2.01
2022-12-09T02:50:11.291Z,-2.07
2022-12-09T02:53:00.687Z,-2.15
2022-12-09T02:55:49.094Z,-2.18
2022-12-09T02:58:34.612Z,-2.28
2022-12-09T03:01:44.760Z,-2.37
2022-12-09T03:04:31.443Z,-2.38
2022-12-09T03:07:16.420Z,-2.39
2022-12-09T03:10:06.479Z,-2.41
2022-12-09T03:13:01.020Z,-2.41
2022-12-09T03:15:51.369Z,-2.43
2022-12-09T03:18:39.057Z,-2.49
2022-12-09T03:21:26.188Z,-2.49
2022-12-09T03:24:15.915Z,-2.48
2022-12-09T03:27:06.368Z,-2.51
2022-12-09T03:29:52.120Z,-2.54
2022-12-09T03:32:38.504Z,-2.56
2022-12-09T03:35:29.825Z,-2.53
2022-12-09T03:38:17.900Z,-2.54
2022-12-09T03:41:27.043Z,-2.56
2022-12-09T03:44:27.979Z,-2.52
2022-12-09T03:47:12.971Z,-2.52
2022-12-09T03:49:58.127Z,-2.53
2022-12-09T03:52:52.102Z,-2.52
2022-12-09T03:55:47.607Z,-2.51
2022-12-09T03:58:34.630Z,-2.49
2022-12-09T04:01:22.864Z,-2.55
2022-12-09T04:04:08.155Z,-2.62
2022-12-09T04:06:53.605Z,-2.58
2022-12-09T04:09:38.692Z,-2.63
2022-12-09T04:12:23.634Z,-2.59
2022-12-09T04:15:09.594Z,-2.61
2022-12-09T04:17:54.179Z,-2.61
2022-12-09T04:20:39.236Z,-2.57
2022-12-09T04:23:24.484Z,-2.57
2022-12-09T04:26:12.552Z,-2.64
2022-12-09T04:28:57.458Z,-2.71
2022-12-09T04:31:42.244Z,-2.73
2022-12-09T04:34:27.347Z,-2.72
2022-12-09T04:37:12.487Z,-2.76
2022-12-09T04:39:57.395Z,-2.82
2022-12-09T04:42:42.379Z,-2.87
2022-12-09T04:45:27.357Z,-2.90
2022-12-09T04:48:12.178Z,-2.92
2022-12-09T04:50:57.772Z,-2.93
2022-12-09T04:53:42.706Z,-2.97
2022-12-09T04:56:27.496Z,-2.98
2022-12-09T04:59:12.138Z,-3.08
2022-12-09T05:01:57.276Z,-3.11
2022-12-09T05:04:42.238Z,-3.13
2022-12-09T05:07:30.650Z,-3.17
2022-12-09T05:10:16.275Z,-3.20
2022-12-09T05:13:01.533Z,-3.17
2022-12-09T05:15:46.376Z,-3.18
2022-12-09T05:18:31.662Z,-3.16
2022-12-09T05:21:19.402Z,-3.13
2022-12-09T05:24:04.458Z,-3.14
2022-12-09T05:26:49.581Z,-3.12
2022-12-09T05:29:36.387Z,-3.12
2022-12-09T05:32:21.487Z,-3.08
2022-12-09T05:35:07.512Z,-3.06
2022-12-09T05:37:52.775Z,-3.06
2022-12-09T05:40:37.594Z,-3.05
2022-12-09T05:43:22.761Z,-3.04
2022-12-09T05:46:08.801Z,-3.05
2022-12-09T05:48:54.171Z,-3.06
2022-12-09T05:51:39.176Z,-3.03
2022-12-09T05:54:24.068Z,-2.98
2022-12-09T05:57:09.316Z,-3.02
2022-12-09T05:59:55.264Z,-3.05
2022-12-09T06:02:40.796Z,-3.04
2022-12-09T06:05:27.330Z,-3.08
2022-12-09T06:08:12.222Z,-3.07
2022-12-09T06:10:57.428Z,-3.14
2022-12-09T06:13:43.501Z,-3.08
2022-12-09T06:16:28.975Z,-3.09
2022-12-09T06:19:15.533Z,-3.11
2022-12-09T06:22:00.783Z,-3.12
2022-12-09T06:24:46.137Z,-3.11
2022-12-09T06:27:30.852Z,-3.06
2022-12-09T06:30:16.909Z,-3.06
2022-12-09T06:33:23.089Z,-2.99
2022-12-09T06:36:13.167Z,-2.98
2022-12-09T06:39:03.188Z,-2.94
2022-12-09T06:41:52.811Z,-2.96
2022-12-09T06:44:39.668Z,-2.95
2022-12-09T06:47:26.676Z,-2.97
2022-12-09T06:50:13.137Z,-2.99
2022-12-09T06:53:00.886Z,-3.03
2022-12-09T06:59:33.462Z,-3.07
2022-12-09T07:02:21.678Z,-2.93
2022-12-09T07:05:08.546Z,-2.81
2022-12-09T07:08:08.612Z,-2.76
2022-12-09T07:11:00.233Z,-2.64
2022-12-09T07:13:45.454Z,-2.59
2022-12-09T07:16:31.153Z,-2.49
2022-12-09T07:19:20.184Z,-2.41
2022-12-09T07:22:06.872Z,-2.32
2022-12-09T07:24:53.525Z,-2.19
2022-12-09T07:27:45.973Z,-2.04
2022-12-09T07:30:31.022Z,-2.04
2022-12-09T07:33:16.653Z,-1.92
2022-12-09T07:36:03.768Z,-1.89
2022-12-09T07:38:55.771Z,-1.84
2022-12-09T07:41:42.094Z,-1.86
2022-12-09T07:44:33.083Z,-1.77
2022-12-09T07:47:18.803Z,-1.63
2022-12-09T07:50:19.124Z,-1.62
2022-12-09T07:53:14.213Z,-1.68
2022-12-09T07:56:09.310Z,-1.70
2022-12-09T07:58:57.621Z,-1.67
2022-12-09T08:01:44.465Z,-1.58
2022-12-09T08:07:31.147Z,-1.60
2022-12-09T08:10:16.602Z,-1.62
2022-12-09T08:13:03.850Z,-1.57
2022-12-09T08:15:51.152Z,-1.56
2022-12-09T08:22:24.297Z,-1.70
2022-12-09T08:25:19.979Z,-1.63
2022-12-09T08:28:06.349Z,-1.62
2022-12-09T08:31:19.698Z,-1.56
2022-12-09T08:34:12.381Z,-1.41
2022-12-09T08:37:02.021Z,-1.23
2022-12-09T08:39:51.484Z,-1.13
2022-12-09T08:42:38.584Z,-0.99
2022-12-09T08:45:29.540Z,-0.88
2022-12-09T08:48:28.022Z,-0.85
2022-12-09T08:51:17.814Z,-0.86
2022-12-09T08:57:41.158Z,-0.79
2022-12-09T09:00:35.858Z,-0.78
2022-12-09T09:03:39.207Z,-0.70
2022-12-09T09:06:27.958Z,-0.67
2022-12-09T09:09:31.443Z,-0.63
2022-12-09T09:12:20.878Z,-0.56
2022-12-09T09:15:06.891Z,-0.44
2022-12-09T09:17:55.909Z,-0.27
2022-12-09T09:20:48.367Z,-0.16
2022-12-09T09:23:36.035Z,-0.17
2022-12-09T09:26:29.747Z,-0.21
2022-12-09T09:29:26.391Z,-0.17
2022-12-09T09:32:32.898Z,-0.07
2022-12-09T09:35:19.786Z,0.02
2022-12-09T09:38:04.989Z,0.12
2022-12-09T09:40:50.033Z,0.12
2022-12-09T09:43:57.385Z,0.25
2022-12-09T09:47:38.221Z,0.54
2022-12-09T09:51:06.467Z,0.74
2022-12-09T09:54:06.722Z,0.57
2022-12-09T09:57:07.039Z,0.55
2022-12-09T10:00:27.880Z,0.44
2022-12-09T10:03:54.962Z,0.52
2022-12-09T10:07:04.115Z,0.74
2022-12-09T10:10:13.566Z,0.89
2022-12-09T10:13:18.770Z,0.98
2022-12-09T10:16:32.830Z,1.04
2022-12-09T10:19:28.503Z,1.10
2022-12-09T10:22:21.257Z,1.09
2022-12-09T10:25:27.564Z,1.10
2022-12-09T10:28:37.253Z,1.11
2022-12-09T10:31:23.549Z,0.92
2022-12-09T10:34:11.810Z,0.99
2022-12-09T10:40:33.589Z,0.89
2022-12-09T10:43:58.007Z,0.74
2022-12-09T10:50:36.519Z,0.69
2022-12-09T10:53:29.258Z,0.71
2022-12-09T10:56:27.368Z,0.74
2022-12-09T10:59:26.635Z,0.78
2022-12-09T11:06:46.727Z,0.76
2022-12-09T11:09:47.971Z,0.74
2022-12-09T11:13:05.468Z,0.71
2022-12-09T11:15:59.299Z,0.77
2022-12-09T11:18:50.705Z,0.73
2022-12-09T11:21:39.532Z,0.76
2022-12-09T11:24:51.350Z,0.78
2022-12-09T11:28:16.586Z,0.83
2022-12-09T11:31:29.597Z,0.93
2022-12-09T11:34:18.013Z,0.98
2022-12-09T11:37:03.064Z,0.95
2022-12-09T11:39:49.800Z,1.04
2022-12-09T11:42:34.802Z,1.08
2022-12-09T11:45:50.635Z,1.13
2022-12-09T11:48:41.753Z,1.12
2022-12-09T11:51:39.791Z,1.23
2022-12-09T11:54:34.140Z,1.32
2022-12-09T11:57:34.599Z,1.35
2022-12-09T12:00:22.227Z,1.31
2022-12-09T12:03:26.514Z,1.22
2022-12-09T12:06:21.388Z,1.13
2022-12-09T12:09:19.066Z,1.12
2022-12-09T12:12:39.584Z,1.07
2022-12-09T12:15:48.366Z,1.06
2022-12-09T12:18:39.996Z,0.98
2022-12-09T12:21:46.303Z,1.00
2022-12-09T12:24:51.533Z,1.00
2022-12-09T12:27:51.706Z,1.04
2022-12-09T12:31:06.865Z,1.01
2022-12-09T12:34:24.466Z,0.97
2022-12-09T12:37:40.293Z,0.95
2022-12-09T12:40:42.600Z,0.89
2022-12-09T12:44:23.239Z,0.86
2022-12-09T12:47:50.598Z,0.84
2022-12-09T12:50:41.677Z,0.84
2022-12-09T12:53:38.137Z,0.84
2022-12-09T12:56:36.431Z,0.81
2022-12-09T12:59:24.395Z,0.80
2022-12-09T13:02:32.063Z,0.73
2022-12-09T13:05:22.825Z,0.66
2022-12-09T13:08:20.197Z,0.66
2022-12-09T13:11:29.196Z,0.59
2022-12-09T13:14:20.495Z,0.51
2022-12-09T13:17:12.388Z,0.46
2022-12-09T13:20:03.250Z,0.41
2022-12-09T13:23:04.805Z,0.38
2022-12-09T13:26:03.751Z,0.35
2022-12-09T13:28:52.078Z,0.28
2022-12-09T13:31:45.076Z,0.26
2022-12-09T13:34:50.773Z,0.25
2022-12-09T13:37:38.609Z,0.23
2022-12-09T13:40:31.372Z,0.20
2022-12-09T13:43:23.834Z,0.18
2022-12-09T13:46:27.067Z,0.17
2022-12-09T13:49:23.725Z,0.16
2022-12-09T13:52:08.555Z,0.14
2022-12-09T13:54:53.029Z,0.17
2022-12-09T13:57:48.361Z,0.16
2022-12-09T14:00:33.879Z,0.14
2022-12-09T14:03:29.076Z,0.16
2022-12-09T14:06:29.564Z,0.13
2022-12-09T14:09:26.668Z,0.18
2022-12-09T14:12:14.693Z,0.15
2022-12-09T14:15:18.904Z,0.17
2022-12-09T14:18:24.578Z,0.16
2022-12-09T14:21:18.375Z,0.19
2022-12-09T14:24:10.628Z,0.21
2022-12-09T14:26:58.372Z,0.23
2022-12-09T14:29:53.432Z,0.21
2022-12-09T14:32:50.260Z,0.26
2022-12-09T14:35:41.129Z,0.27
2022-12-09T14:39:15.630Z,0.29
2022-12-09T14:42:03.605Z,0.29
2022-12-09T14:45:26.764Z,0.32
2022-12-09T14:48:18.939Z,0.32
2022-12-09T14:51:35.088Z,0.32
2022-12-09T14:54:25.218Z,0.29
2022-12-09T14:57:46.364Z,0.33
2022-12-09T15:00:37.305Z,0.36
2022-12-09T15:03:45.315Z,0.39
2022-12-09T15:06:28.007Z,0.37
2022-12-09T15:09:13.025Z,0.40
2022-12-09T15:11:57.991Z,0.41
2022-12-09T15:14:46.109Z,0.41
2022-12-09T15:17:39.389Z,0.40
2022-12-09T15:20:32.098Z,0.45
2022-12-09T15:23:30.125Z,0.44
2022-12-09T15:26:24.455Z,0.45
2022-12-09T15:29:20.764Z,0.42
2022-12-09T15:32:18.501Z,0.46
2022-12-09T15:35:17.364Z,0.49
2022-12-09T15:38:07.007Z,0.48
2022-12-09T15:41:13.899Z,0.49
2022-12-09T15:44:03.069Z,0.46
2022-12-09T15:46:51.438Z,0.50
2022-12-09T15:49:49.392Z,0.51
2022-12-09T15:52:40.605Z,0.49
2022-12-09T15:55:36.136Z,0.53
2022-12-09T15:58:29.661Z,0.52
2022-12-09T16:01:23.475Z,0.53
2022-12-09T16:04:09.358Z,0.54
2022-12-09T16:06:56.252Z,0.53
2022-12-09T16:09:40.871Z,0.54
2022-12-09T16:12:28.990Z,0.56
2022-12-09T16:15:59.781Z,0.57
2022-12-09T16:18:49.543Z,0.55
2022-12-09T16:21:36.025Z,0.55
2022-12-09T16:24:22.215Z,0.57
2022-12-09T16:27:07.191Z,0.57
2022-12-09T16:29:53.725Z,0.59
2022-12-09T16:32:51.983Z,0.58
2022-12-09T16:35:42.202Z,0.58
2022-12-09T16:38:28.826Z,0.59
2022-12-09T16:41:13.770Z,0.60
2022-12-09T16:43:58.560Z,0.61
2022-12-09T16:46:43.178Z,0.59
2022-12-09T16:49:28.004Z,0.63
2022-12-09T16:52:24.248Z,0.62
2022-12-09T16:55:23.711Z,0.63
2022-12-09T16:58:10.292Z,0.64
2022-12-09T17:00:55.851Z,0.62
2022-12-09T17:03:44.232Z,0.63
2022-12-09T17:06:29.668Z,0.66
2022-12-09T17:09:14.505Z,0.63
2022-12-09T17:11:59.504Z,0.63
2022-12-09T17:14:44.706Z,0.65
2022-12-09T17:17:29.769Z,0.63
2022-12-09T17:20:14.601Z,0.64
2022-12-09T17:22:59.511Z,0.61
2022-12-09T17:25:44.029Z,0.65
2022-12-09T17:28:30.412Z,0.64
2022-12-09T17:31:18.894Z,0.63
2022-12-09T17:34:04.023Z,0.63
2022-12-09T17:36:48.835Z,0.65
2022-12-09T17:39:33.513Z,0.65
2022-12-09T17:42:18.362Z,0.66
2022-12-09T17:45:04.512Z,0.61
2022-12-09T17:47:49.614Z,0.65
2022-12-09T17:50:37.254Z,0.61
2022-12-09T17:53:23.054Z,0.63
2022-12-09T17:56:09.442Z,0.61
2022-12-09T17:59:00.243Z,0.62
2022-12-09T18:01:46.456Z,0.64
2022-12-09T18:04:31.832Z,0.63
2022-12-09T18:07:16.434Z,0.64
2022-12-09T18:10:01.746Z,0.60
2022-12-09T18:12:46.930Z,0.63
2022-12-09T18:15:35.828Z,0.62
2022-12-09T18:18:21.329Z,0.63
2022-12-09T18:21:12.048Z,0.63
2022-12-09T18:23:59.799Z,0.60
2022-12-09T18:26:44.792Z,0.59
2022-12-09T18:29:30.338Z,0.60
2022-12-09T18:32:15.154Z,0.58
2022-12-09T18:35:00.445Z,0.55
2022-12-09T18:37:45.239Z,0.57
2022-12-09T18:40:30.285Z,0.59
2022-12-09T18:43:15.171Z,0.55
2022-12-09T18:46:05.751Z,0.56
2022-12-09T18:48:59.608Z,0.57
2022-12-09T18:51:45.768Z,0.57
2022-12-09T18:54:32.270Z,0.58
2022-12-09T18:57:17.054Z,0.56
2022-12-09T19:00:02.539Z,0.57
2022-12-09T19:02:47.118Z,0.58
2022-12-09T19:05:39.735Z,0.58
2022-12-09T19:08:24.660Z,0.60
2022-12-09T19:11:09.539Z,0.63
2022-12-09T19:13:55.876Z,0.63
2022-12-09T19:16:42.080Z,0.61
2022-12-09T19:19:26.638Z,0.62
2022-12-09T19:22:11.674Z,0.60
2022-12-09T19:24:56.407Z,0.60
2022-12-09T19:27:40.858Z,0.57
2022-12-09T19:30:25.705Z,0.62
2022-12-09T19:33:10.275Z,0.60
2022-12-09T19:35:55.099Z,0.62
2022-12-09T19:38:40.179Z,0.60
2022-12-09T19:41:25.795Z,0.59
2022-12-09T19:44:15.332Z,0.60
2022-12-09T19:47:03.476Z,0.56
2022-12-09T19:49:48.173Z,0.56
2022-12-09T19:52:33.004Z,0.59
2022-12-09T19:55:18.029Z,0.55
2022-12-09T19:58:03.586Z,0.57
2022-12-09T20:00:48.369Z,0.53
2022-12-09T20:03:33.012Z,0.56
2022-12-09T20:06:21.187Z,0.57
2022-12-09T20:09:08.139Z,0.59
2022-12-09T20:11:53.539Z,0.58
2022-12-09T20:14:39.164Z,0.60
2022-12-09T20:17:24.064Z,0.57
2022-12-09T20:20:10.222Z,0.55
2022-12-09T20:22:55.383Z,0.54
2022-12-09T20:25:40.407Z,0.51
2022-12-09T20:28:25.133Z,0.54
2022-12-09T20:31:16.342Z,0.55
2022-12-09T20:34:06.595Z,0.54
2022-12-09T20:36:51.585Z,0.54
2022-12-09T20:39:36.253Z,0.52
2022-12-09T20:42:20.905Z,0.50
2022-12-09T20:45:06.026Z,0.50
2022-12-09T20:47:52.397Z,0.48
2022-12-09T20:50:38.977Z,0.47
2022-12-09T20:53:23.910Z,0.49
2022-12-09T20:56:09.413Z,0.46
2022-12-09T20:58:55.828Z,0.50
2022-12-09T21:01:43.256Z,0.45
2022-12-09T21:04:27.947Z,0.46
2022-12-09T21:07:12.914Z,0.47
2022-12-09T21:09:57.931Z,0.49
2022-12-09T21:12:42.638Z,0.52
2022-12-09T21:15:28.739Z,0.49
2022-12-09T21:18:13.222Z,0.50
2022-12-09T21:20:58.382Z,0.47
2022-12-09T21:23:43.565Z,0.50
2022-12-09T21:26:28.864Z,0.47
2022-12-09T21:29:15.211Z,0.43
2022-12-09T21:32:01.120Z,0.42
2022-12-09T21:34:46.025Z,0.41
2022-12-09T21:37:30.820Z,0.42
2022-12-09T21:40:15.840Z,0.40
2022-12-09T21:43:01.252Z,0.36
2022-12-09T21:45:45.722Z,0.39
2022-12-09T21:48:30.447Z,0.35
2022-12-09T21:51:15.730Z,0.35
2022-12-09T21:54:01.342Z,0.35
2022-12-09T21:56:46.881Z,0.37
2022-12-09T21:59:31.997Z,0.34
2022-12-09T22:02:16.740Z,0.34
2022-12-09T22:05:01.445Z,0.34
2022-12-09T22:07:49.226Z,0.32
2022-12-09T22:10:37.203Z,0.32
2022-12-09T22:13:22.082Z,0.32
2022-12-09T22:16:08.696Z,0.30
2022-12-09T22:18:55.970Z,0.32
2022-12-09T22:21:40.513Z,0.32
2022-12-09T22:24:26.017Z,0.30
2022-12-09T22:27:11.057Z,0.31
2022-12-09T22:29:55.932Z,0.32
2022-12-09T22:32:42.771Z,0.34
2022-12-09T22:35:28.995Z,0.33
2022-12-09T22:38:14.839Z,0.28
2022-12-09T22:41:08.090Z,0.24
2022-12-09T22:43:54.361Z,0.19
2022-12-09T22:46:39.304Z,0.19
2022-12-09T22:49:23.989Z,0.20
2022-12-09T22:52:08.505Z,0.21
2022-12-09T22:54:53.515Z,0.16
2022-12-09T22:57:38.687Z,0.15
2022-12-09T23:00:23.397Z,0.15
2022-12-09T23:03:08.087Z,0.16
2022-12-09T23:05:53.193Z,0.17
2022-12-09T23:08:39.594Z,0.16
2022-12-09T23:11:26.774Z,0.16
2022-12-09T23:14:12.635Z,0.17
2022-12-09T23:16:57.396Z,0.16
2022-12-09T23:19:42.101Z,0.14
2022-12-09T23:22:27.181Z,0.21
2022-12-09T23:25:11.759Z,0.22
2022-12-09T23:27:56.303Z,0.19
2022-12-09T23:30:41.085Z,0.24
2022-12-09T23:33:26.337Z,0.25
2022-12-09T23:36:13.205Z,0.27
2022-12-09T23:38:59.548Z,0.28
2022-12-09T23:41:45.274Z,0.27
2022-12-09T23:44:30.245Z,0.29
2022-12-09T23:47:15.552Z,0.31
2022-12-09T23:50:00.144Z,0.33
2022-12-09T23:52:44.665Z,0.31
2022-12-09T23:55:29.815Z,0.32
2022-12-09T23:58:15.033Z,0.35
